sensor_id;sensor_type;location;lat;lon;timestamp;P1;durP1;ratioP1;P2;durP2;ratioP2
8694;SDS011;65580;49.446;6.854;2023-03-24T00:02:51;14.88;;;8.70;;
8694;SDS011;65580;49.446;6.854;2023-03-24T00:06:54;13.48;;;8.65;;
8694;SDS011;65580;49.446;6.854;2023-03-24T00:10:57;12.48;;;7.05;;
8694;SDS011;65580;49.446;6.854;2023-03-24T00:15:01;19.30;;;10.50;;
8694;SDS011;65580;49.446;6.854;2023-03-24T00:19:06;12.40;;;7.30;;
8694;SDS011;65580;49.446;6.854;2023-03-24T00:23:09;17.65;;;9.73;;
8694;SDS011;65580;49.446;6.854;2023-03-24T00:27:12;13.43;;;7.30;;
8694;SDS011;65580;49.446;6.854;2023-03-24T00:31:16;14.18;;;7.60;;
8694;SDS011;65580;49.446;6.854;2023-03-24T00:35:20;10.73;;;6.60;;
8694;SDS011;65580;49.446;6.854;2023-03-24T00:39:23;18.15;;;8.57;;
8694;SDS011;65580;49.446;6.854;2023-03-24T00:43:27;14.20;;;7.60;;
8694;SDS011;65580;49.446;6.854;2023-03-24T00:47:29;22.00;;;11.55;;
8694;SDS011;65580;49.446;6.854;2023-03-24T00:51:38;12.30;;;6.72;;
8694;SDS011;65580;49.446;6.854;2023-03-24T00:55:42;25.60;;;11.00;;
8694;SDS011;65580;49.446;6.854;2023-03-24T00:59:46;16.15;;;8.30;;
8694;SDS011;65580;49.446;6.854;2023-03-24T01:03:49;17.27;;;9.30;;
8694;SDS011;65580;49.446;6.854;2023-03-24T01:07:53;32.13;;;12.75;;
8694;SDS011;65580;49.446;6.854;2023-03-24T01:11:57;17.05;;;8.70;;
8694;SDS011;65580;49.446;6.854;2023-03-24T01:16:00;26.95;;;11.77;;
8694;SDS011;65580;49.446;6.854;2023-03-24T01:20:03;17.98;;;9.68;;
8694;SDS011;65580;49.446;6.854;2023-03-24T01:24:12;18.15;;;9.75;;
8694;SDS011;65580;49.446;6.854;2023-03-24T01:28:16;12.50;;;7.25;;
8694;SDS011;65580;49.446;6.854;2023-03-24T01:32:21;18.55;;;9.57;;
8694;SDS011;65580;49.446;6.854;2023-03-24T01:36:24;18.00;;;10.35;;
8694;SDS011;65580;49.446;6.854;2023-03-24T01:40:29;54.83;;;17.63;;
8694;SDS011;65580;49.446;6.854;2023-03-24T01:44:34;18.02;;;9.70;;
8694;SDS011;65580;49.446;6.854;2023-03-24T01:48:39;24.88;;;11.25;;
8694;SDS011;65580;49.446;6.854;2023-03-24T01:52:44;14.48;;;8.18;;
8694;SDS011;65580;49.446;6.854;2023-03-24T01:56:49;19.40;;;8.75;;
8694;SDS011;65580;49.446;6.854;2023-03-24T02:00:53;56.00;;;15.50;;
8694;SDS011;65580;49.446;6.854;2023-03-24T02:04:58;17.70;;;8.43;;
8694;SDS011;65580;49.446;6.854;2023-03-24T02:09:03;16.30;;;8.77;;
8694;SDS011;65580;49.446;6.854;2023-03-24T02:13:08;15.90;;;8.35;;
8694;SDS011;65580;49.446;6.854;2023-03-24T02:21:44;29.33;;;14.00;;
8694;SDS011;65580;49.446;6.854;2023-03-24T02:26:19;44.85;;;15.90;;
8694;SDS011;65580;49.446;6.854;2023-03-24T02:35:19;19.42;;;9.82;;
8694;SDS011;65580;49.446;6.854;2023-03-24T02:39:40;19.80;;;10.27;;
8694;SDS011;65580;49.446;6.854;2023-03-24T02:44:17;17.60;;;9.43;;
8694;SDS011;65580;49.446;6.854;2023-03-24T02:48:22;16.20;;;8.27;;
8694;SDS011;65580;49.446;6.854;2023-03-24T02:52:31;13.65;;;7.20;;
8694;SDS011;65580;49.446;6.854;2023-03-24T02:56:38;16.48;;;7.88;;
8694;SDS011;65580;49.446;6.854;2023-03-24T03:00:45;12.82;;;6.93;;
8694;SDS011;65580;49.446;6.854;2023-03-24T03:04:53;11.63;;;5.93;;
8694;SDS011;65580;49.446;6.854;2023-03-24T03:08:58;12.40;;;6.40;;
8694;SDS011;65580;49.446;6.854;2023-03-24T03:13:07;9.90;;;6.05;;
8694;SDS011;65580;49.446;6.854;2023-03-24T03:17:13;12.55;;;6.47;;
8694;SDS011;65580;49.446;6.854;2023-03-24T03:21:21;11.18;;;6.63;;
8694;SDS011;65580;49.446;6.854;2023-03-24T03:25:26;9.52;;;5.93;;
8694;SDS011;65580;49.446;6.854;2023-03-24T03:29:33;12.38;;;7.40;;
8694;SDS011;65580;49.446;6.854;2023-03-24T03:33:39;14.95;;;6.47;;
8694;SDS011;65580;49.446;6.854;2023-03-24T03:37:46;11.10;;;5.88;;
8694;SDS011;65580;49.446;6.854;2023-03-24T03:41:51;10.35;;;5.60;;
8694;SDS011;65580;49.446;6.854;2023-03-24T03:45:56;11.00;;;4.90;;
8694;SDS011;65580;49.446;6.854;2023-03-24T03:49:59;9.25;;;4.68;;
8694;SDS011;65580;49.446;6.854;2023-03-24T03:54:04;10.45;;;4.15;;
8694;SDS011;65580;49.446;6.854;2023-03-24T03:58:09;8.38;;;3.90;;
8694;SDS011;65580;49.446;6.854;2023-03-24T04:02:19;6.20;;;3.60;;
8694;SDS011;65580;49.446;6.854;2023-03-24T04:06:32;6.75;;;3.33;;
8694;SDS011;65580;49.446;6.854;2023-03-24T04:14:52;7.13;;;3.95;;
8694;SDS011;65580;49.446;6.854;2023-03-24T04:19:18;4.10;;;2.45;;
8694;SDS011;65580;49.446;6.854;2023-03-24T04:23:29;5.25;;;2.50;;
8694;SDS011;65580;49.446;6.854;2023-03-24T04:27:42;3.90;;;2.28;;
8694;SDS011;65580;49.446;6.854;2023-03-24T04:31:49;7.07;;;2.30;;
8694;SDS011;65580;49.446;6.854;2023-03-24T04:35:56;5.38;;;2.63;;
8694;SDS011;65580;49.446;6.854;2023-03-24T04:40:07;3.95;;;2.28;;
8694;SDS011;65580;49.446;6.854;2023-03-24T04:44:12;9.68;;;4.68;;
8694;SDS011;65580;49.446;6.854;2023-03-24T04:48:18;10.48;;;4.28;;
8694;SDS011;65580;49.446;6.854;2023-03-24T04:52:22;7.70;;;4.28;;
8694;SDS011;65580;49.446;6.854;2023-03-24T04:56:29;6.15;;;3.40;;
8694;SDS011;65580;49.446;6.854;2023-03-24T05:00:36;11.00;;;5.47;;
8694;SDS011;65580;49.446;6.854;2023-03-24T05:04:39;10.63;;;5.82;;
8694;SDS011;65580;49.446;6.854;2023-03-24T05:08:44;11.20;;;5.88;;
8694;SDS011;65580;49.446;6.854;2023-03-24T05:12:47;15.20;;;7.65;;
8694;SDS011;65580;49.446;6.854;2023-03-24T05:16:49;10.95;;;6.68;;
8694;SDS011;65580;49.446;6.854;2023-03-24T05:20:52;23.38;;;11.15;;
8694;SDS011;65580;49.446;6.854;2023-03-24T05:24:57;14.40;;;7.45;;
8694;SDS011;65580;49.446;6.854;2023-03-24T05:29:00;13.57;;;6.78;;
8694;SDS011;65580;49.446;6.854;2023-03-24T05:37:06;11.27;;;5.68;;
8694;SDS011;65580;49.446;6.854;2023-03-24T05:41:14;15.40;;;6.60;;
8694;SDS011;65580;49.446;6.854;2023-03-24T05:45:17;10.60;;;6.05;;
8694;SDS011;65580;49.446;6.854;2023-03-24T05:49:20;11.40;;;5.57;;
8694;SDS011;65580;49.446;6.854;2023-03-24T05:53:23;13.43;;;6.82;;
8694;SDS011;65580;49.446;6.854;2023-03-24T05:57:27;9.00;;;4.97;;
8694;SDS011;65580;49.446;6.854;2023-03-24T06:01:31;11.20;;;5.50;;
8694;SDS011;65580;49.446;6.854;2023-03-24T06:05:34;12.73;;;6.18;;
8694;SDS011;65580;49.446;6.854;2023-03-24T06:09:37;8.05;;;5.15;;
8694;SDS011;65580;49.446;6.854;2023-03-24T06:13:44;11.05;;;6.10;;
8694;SDS011;65580;49.446;6.854;2023-03-24T06:17:47;10.10;;;4.03;;
8694;SDS011;65580;49.446;6.854;2023-03-24T06:21:50;8.30;;;4.53;;
8694;SDS011;65580;49.446;6.854;2023-03-24T06:25:53;8.07;;;4.43;;
8694;SDS011;65580;49.446;6.854;2023-03-24T06:30:00;9.23;;;4.57;;
8694;SDS011;65580;49.446;6.854;2023-03-24T06:34:03;8.23;;;3.85;;
8694;SDS011;65580;49.446;6.854;2023-03-24T06:38:07;8.13;;;3.53;;
8694;SDS011;65580;49.446;6.854;2023-03-24T06:42:10;7.97;;;3.55;;
8694;SDS011;65580;49.446;6.854;2023-03-24T06:46:14;6.22;;;3.22;;
8694;SDS011;65580;49.446;6.854;2023-03-24T06:50:17;7.03;;;3.75;;
8694;SDS011;65580;49.446;6.854;2023-03-24T06:54:20;7.97;;;3.47;;
8694;SDS011;65580;49.446;6.854;2023-03-24T06:58:23;9.93;;;4.05;;
8694;SDS011;65580;49.446;6.854;2023-03-24T07:02:27;7.15;;;3.38;;
8694;SDS011;65580;49.446;6.854;2023-03-24T07:06:35;6.55;;;3.30;;
8694;SDS011;65580;49.446;6.854;2023-03-24T07:10:56;5.82;;;3.10;;
8694;SDS011;65580;49.446;6.854;2023-03-24T07:14:59;8.07;;;3.53;;
8694;SDS011;65580;49.446;6.854;2023-03-24T07:19:06;4.53;;;3.20;;
8694;SDS011;65580;49.446;6.854;2023-03-24T07:23:09;5.25;;;3.20;;
8694;SDS011;65580;49.446;6.854;2023-03-24T07:27:12;6.22;;;3.25;;
8694;SDS011;65580;49.446;6.854;2023-03-24T07:31:14;4.75;;;2.63;;
8694;SDS011;65580;49.446;6.854;2023-03-24T07:35:18;4.47;;;2.03;;
8694;SDS011;65580;49.446;6.854;2023-03-24T07:39:22;2.50;;;1.55;;
8694;SDS011;65580;49.446;6.854;2023-03-24T07:43:25;3.58;;;1.90;;
8694;SDS011;65580;49.446;6.854;2023-03-24T07:47:28;4.88;;;2.95;;
8694;SDS011;65580;49.446;6.854;2023-03-24T07:51:33;6.40;;;3.90;;
8694;SDS011;65580;49.446;6.854;2023-03-24T07:55:40;10.15;;;5.32;;
8694;SDS011;65580;49.446;6.854;2023-03-24T07:59:43;8.23;;;5.78;;
8694;SDS011;65580;49.446;6.854;2023-03-24T08:03:46;12.85;;;6.35;;
8694;SDS011;65580;49.446;6.854;2023-03-24T08:07:51;9.68;;;6.05;;
8694;SDS011;65580;49.446;6.854;2023-03-24T08:11:55;11.27;;;5.20;;
8694;SDS011;65580;49.446;6.854;2023-03-24T08:16:04;7.70;;;4.90;;
8694;SDS011;65580;49.446;6.854;2023-03-24T08:20:09;7.45;;;4.70;;
8694;SDS011;65580;49.446;6.854;2023-03-24T08:24:16;7.90;;;4.90;;
8694;SDS011;65580;49.446;6.854;2023-03-24T08:28:20;10.50;;;5.32;;
8694;SDS011;65580;49.446;6.854;2023-03-24T08:32:23;7.45;;;3.28;;
8694;SDS011;65580;49.446;6.854;2023-03-24T08:36:27;3.00;;;1.20;;
8694;SDS011;65580;49.446;6.854;2023-03-24T08:40:31;2.72;;;1.33;;
8694;SDS011;65580;49.446;6.854;2023-03-24T08:44:34;4.13;;;1.20;;
8694;SDS011;65580;49.446;6.854;2023-03-24T08:48:37;2.60;;;1.20;;
8694;SDS011;65580;49.446;6.854;2023-03-24T08:52:41;4.28;;;1.20;;
8694;SDS011;65580;49.446;6.854;2023-03-24T08:56:49;2.67;;;1.25;;
8694;SDS011;65580;49.446;6.854;2023-03-24T09:00:52;4.97;;;1.67;;
8694;SDS011;65580;49.446;6.854;2023-03-24T09:04:55;2.97;;;1.02;;
8694;SDS011;65580;49.446;6.854;2023-03-24T09:08:58;3.65;;;0.93;;
8694;SDS011;65580;49.446;6.854;2023-03-24T09:13:02;3.85;;;1.30;;
8694;SDS011;65580;49.446;6.854;2023-03-24T09:17:05;1.85;;;1.20;;
8694;SDS011;65580;49.446;6.854;2023-03-24T09:21:09;2.78;;;1.08;;
8694;SDS011;65580;49.446;6.854;2023-03-24T09:25:12;3.75;;;1.13;;
8694;SDS011;65580;49.446;6.854;2023-03-24T09:29:18;3.28;;;1.08;;
8694;SDS011;65580;49.446;6.854;2023-03-24T09:33:21;3.10;;;1.42;;
8694;SDS011;65580;49.446;6.854;2023-03-24T09:37:27;4.07;;;1.25;;
8694;SDS011;65580;49.446;6.854;2023-03-24T09:41:30;2.47;;;1.33;;
8694;SDS011;65580;49.446;6.854;2023-03-24T09:45:36;5.05;;;1.30;;
8694;SDS011;65580;49.446;6.854;2023-03-24T09:49:45;5.38;;;1.30;;
8694;SDS011;65580;49.446;6.854;2023-03-24T09:53:51;4.13;;;1.30;;
8694;SDS011;65580;49.446;6.854;2023-03-24T09:58:01;5.65;;;1.50;;
8694;SDS011;65580;49.446;6.854;2023-03-24T10:02:10;5.47;;;1.50;;
8694;SDS011;65580;49.446;6.854;2023-03-24T10:06:15;7.05;;;1.40;;
8694;SDS011;65580;49.446;6.854;2023-03-24T10:10:25;7.03;;;1.77;;
8694;SDS011;65580;49.446;6.854;2023-03-24T10:14:39;8.57;;;1.60;;
8694;SDS011;65580;49.446;6.854;2023-03-24T10:18:49;6.28;;;1.45;;
8694;SDS011;65580;49.446;6.854;2023-03-24T10:22:57;3.88;;;1.33;;
8694;SDS011;65580;49.446;6.854;2023-03-24T10:27:03;2.60;;;1.50;;
8694;SDS011;65580;49.446;6.854;2023-03-24T10:31:09;4.35;;;1.50;;
8694;SDS011;65580;49.446;6.854;2023-03-24T10:35:18;6.82;;;1.50;;
8694;SDS011;65580;49.446;6.854;2023-03-24T10:39:24;3.63;;;1.58;;
8694;SDS011;65580;49.446;6.854;2023-03-24T10:43:44;4.85;;;1.38;;
8694;SDS011;65580;49.446;6.854;2023-03-24T10:47:48;5.97;;;1.60;;
8694;SDS011;65580;49.446;6.854;2023-03-24T10:51:58;5.93;;;1.50;;
8694;SDS011;65580;49.446;6.854;2023-03-24T10:56:04;7.15;;;1.50;;
8694;SDS011;65580;49.446;6.854;2023-03-24T11:00:08;5.85;;;1.30;;
8694;SDS011;65580;49.446;6.854;2023-03-24T11:04:19;2.92;;;1.08;;
8694;SDS011;65580;49.446;6.854;2023-03-24T11:08:26;3.72;;;1.27;;
8694;SDS011;65580;49.446;6.854;2023-03-24T11:12:31;4.75;;;1.10;;
8694;SDS011;65580;49.446;6.854;2023-03-24T11:16:35;5.50;;;1.30;;
8694;SDS011;65580;49.446;6.854;2023-03-24T11:20:40;3.75;;;1.20;;
8694;SDS011;65580;49.446;6.854;2023-03-24T11:24:48;3.75;;;1.30;;
8694;SDS011;65580;49.446;6.854;2023-03-24T11:28:53;5.70;;;1.40;;
8694;SDS011;65580;49.446;6.854;2023-03-24T11:32:58;3.78;;;0.93;;
8694;SDS011;65580;49.446;6.854;2023-03-24T11:37:03;3.85;;;1.25;;
8694;SDS011;65580;49.446;6.854;2023-03-24T11:41:08;4.00;;;1.23;;
8694;SDS011;65580;49.446;6.854;2023-03-24T11:45:22;3.03;;;1.20;;
8694;SDS011;65580;49.446;6.854;2023-03-24T11:49:29;3.95;;;1.23;;
8694;SDS011;65580;49.446;6.854;2023-03-24T11:53:34;3.65;;;1.10;;
8694;SDS011;65580;49.446;6.854;2023-03-24T11:57:43;5.88;;;1.30;;
8694;SDS011;65580;49.446;6.854;2023-03-24T12:01:51;3.70;;;1.25;;
8694;SDS011;65580;49.446;6.854;2023-03-24T12:10:05;5.07;;;1.10;;
8694;SDS011;65580;49.446;6.854;2023-03-24T12:14:18;4.88;;;1.33;;
8694;SDS011;65580;49.446;6.854;2023-03-24T12:18:30;2.88;;;1.15;;
8694;SDS011;65580;49.446;6.854;2023-03-24T12:22:41;6.32;;;1.30;;
8694;SDS011;65580;49.446;6.854;2023-03-24T12:26:51;5.60;;;1.20;;
8694;SDS011;65580;49.446;6.854;2023-03-24T12:31:01;3.70;;;1.10;;
8694;SDS011;65580;49.446;6.854;2023-03-24T12:35:19;5.47;;;1.50;;
8694;SDS011;65580;49.446;6.854;2023-03-24T12:39:30;5.43;;;1.33;;
8694;SDS011;65580;49.446;6.854;2023-03-24T12:43:36;5.88;;;1.30;;
8694;SDS011;65580;49.446;6.854;2023-03-24T12:47:52;4.63;;;1.58;;
8694;SDS011;65580;49.446;6.854;2023-03-24T12:52:19;4.35;;;1.05;;
8694;SDS011;65580;49.446;6.854;2023-03-24T12:56:30;5.22;;;1.55;;
8694;SDS011;65580;49.446;6.854;2023-03-24T13:00:36;3.42;;;1.15;;
8694;SDS011;65580;49.446;6.854;2023-03-24T13:04:42;3.85;;;1.48;;
8694;SDS011;65580;49.446;6.854;2023-03-24T13:08:55;1.92;;;0.77;;
8694;SDS011;65580;49.446;6.854;2023-03-24T13:13:07;4.95;;;1.40;;
8694;SDS011;65580;49.446;6.854;2023-03-24T13:17:13;2.70;;;1.10;;
8694;SDS011;65580;49.446;6.854;2023-03-24T13:21:21;4.25;;;1.45;;
8694;SDS011;65580;49.446;6.854;2023-03-24T13:25:28;4.22;;;1.00;;
8694;SDS011;65580;49.446;6.854;2023-03-24T13:34:09;5.55;;;1.08;;
8694;SDS011;65580;49.446;6.854;2023-03-24T13:38:21;6.25;;;1.50;;
8694;SDS011;65580;49.446;6.854;2023-03-24T13:42:28;8.95;;;1.02;;
8694;SDS011;65580;49.446;6.854;2023-03-24T13:46:34;4.13;;;1.35;;
8694;SDS011;65580;49.446;6.854;2023-03-24T13:50:40;3.00;;;1.00;;
8694;SDS011;65580;49.446;6.854;2023-03-24T13:54:53;7.45;;;1.25;;
8694;SDS011;65580;49.446;6.854;2023-03-24T13:59:11;7.00;;;1.50;;
8694;SDS011;65580;49.446;6.854;2023-03-24T14:03:30;5.28;;;1.30;;
8694;SDS011;65580;49.446;6.854;2023-03-24T14:07:44;4.55;;;1.20;;
8694;SDS011;65580;49.446;6.854;2023-03-24T14:20:57;4.85;;;1.20;;
8694;SDS011;65580;49.446;6.854;2023-03-24T14:25:03;6.75;;;1.30;;
8694;SDS011;65580;49.446;6.854;2023-03-24T14:29:25;5.22;;;1.00;;
8694;SDS011;65580;49.446;6.854;2023-03-24T14:33:37;4.20;;;1.20;;
8694;SDS011;65580;49.446;6.854;2023-03-24T14:37:46;5.53;;;1.02;;
8694;SDS011;65580;49.446;6.854;2023-03-24T14:41:51;4.18;;;0.93;;
8694;SDS011;65580;49.446;6.854;2023-03-24T14:46:09;7.22;;;1.42;;
8694;SDS011;65580;49.446;6.854;2023-03-24T14:50:39;3.80;;;1.58;;
8694;SDS011;65580;49.446;6.854;2023-03-24T14:54:43;3.45;;;0.93;;
8694;SDS011;65580;49.446;6.854;2023-03-24T14:58:47;3.42;;;1.05;;
8694;SDS011;65580;49.446;6.854;2023-03-24T15:02:54;5.68;;;1.30;;
8694;SDS011;65580;49.446;6.854;2023-03-24T15:06:58;3.50;;;1.10;;
8694;SDS011;65580;49.446;6.854;2023-03-24T15:11:05;6.90;;;1.17;;
8694;SDS011;65580;49.446;6.854;2023-03-24T15:15:13;5.68;;;1.27;;
8694;SDS011;65580;49.446;6.854;2023-03-24T15:19:19;3.85;;;1.13;;
8694;SDS011;65580;49.446;6.854;2023-03-24T15:23:24;7.30;;;1.30;;
8694;SDS011;65580;49.446;6.854;2023-03-24T15:27:28;8.80;;;1.20;;
8694;SDS011;65580;49.446;6.854;2023-03-24T15:31:33;6.25;;;1.20;;
8694;SDS011;65580;49.446;6.854;2023-03-24T15:35:41;4.22;;;1.05;;
8694;SDS011;65580;49.446;6.854;2023-03-24T15:39:47;4.38;;;1.15;;
8694;SDS011;65580;49.446;6.854;2023-03-24T15:43:52;7.50;;;1.20;;
8694;SDS011;65580;49.446;6.854;2023-03-24T15:47:56;5.78;;;1.48;;
8694;SDS011;65580;49.446;6.854;2023-03-24T15:52:02;6.15;;;1.13;;
8694;SDS011;65580;49.446;6.854;2023-03-24T15:56:14;6.72;;;1.00;;
8694;SDS011;65580;49.446;6.854;2023-03-24T16:00:22;6.55;;;1.45;;
8694;SDS011;65580;49.446;6.854;2023-03-24T16:04:27;6.13;;;1.30;;
8694;SDS011;65580;49.446;6.854;2023-03-24T16:08:32;9.23;;;1.20;;
8694;SDS011;65580;49.446;6.854;2023-03-24T16:12:39;5.38;;;1.42;;
8694;SDS011;65580;49.446;6.854;2023-03-24T16:16:42;4.88;;;1.10;;
8694;SDS011;65580;49.446;6.854;2023-03-24T16:20:45;3.17;;;1.08;;
8694;SDS011;65580;49.446;6.854;2023-03-24T16:24:50;3.17;;;1.08;;
8694;SDS011;65580;49.446;6.854;2023-03-24T16:28:53;6.38;;;1.33;;
8694;SDS011;65580;49.446;6.854;2023-03-24T16:32:58;4.47;;;1.05;;
8694;SDS011;65580;49.446;6.854;2023-03-24T16:37:01;4.22;;;1.35;;
8694;SDS011;65580;49.446;6.854;2023-03-24T16:41:07;7.63;;;1.50;;
8694;SDS011;65580;49.446;6.854;2023-03-24T16:45:12;7.07;;;1.20;;
8694;SDS011;65580;49.446;6.854;2023-03-24T16:49:15;6.32;;;2.00;;
8694;SDS011;65580;49.446;6.854;2023-03-24T16:53:20;6.72;;;1.35;;
8694;SDS011;65580;49.446;6.854;2023-03-24T16:57:24;5.53;;;1.48;;
8694;SDS011;65580;49.446;6.854;2023-03-24T17:01:27;4.53;;;1.00;;
8694;SDS011;65580;49.446;6.854;2023-03-24T17:05:34;8.75;;;1.38;;
8694;SDS011;65580;49.446;6.854;2023-03-24T17:09:41;9.25;;;1.17;;
8694;SDS011;65580;49.446;6.854;2023-03-24T17:13:46;6.35;;;1.45;;
8694;SDS011;65580;49.446;6.854;2023-03-24T17:17:49;6.35;;;1.00;;
8694;SDS011;65580;49.446;6.854;2023-03-24T17:21:54;7.43;;;1.20;;
8694;SDS011;65580;49.446;6.854;2023-03-24T17:25:59;4.18;;;0.90;;
8694;SDS011;65580;49.446;6.854;2023-03-24T17:30:04;4.15;;;1.33;;
8694;SDS011;65580;49.446;6.854;2023-03-24T17:34:08;5.00;;;1.83;;
8694;SDS011;65580;49.446;6.854;2023-03-24T17:38:20;5.47;;;1.55;;
8694;SDS011;65580;49.446;6.854;2023-03-24T17:42:24;2.80;;;1.00;;
8694;SDS011;65580;49.446;6.854;2023-03-24T17:46:29;2.13;;;0.85;;
8694;SDS011;65580;49.446;6.854;2023-03-24T17:50:31;4.85;;;1.08;;
8694;SDS011;65580;49.446;6.854;2023-03-24T17:54:34;2.47;;;0.80;;
8694;SDS011;65580;49.446;6.854;2023-03-24T17:58:37;3.53;;;0.93;;
8694;SDS011;65580;49.446;6.854;2023-03-24T18:02:41;2.13;;;1.17;;
8694;SDS011;65580;49.446;6.854;2023-03-24T18:06:45;1.02;;;0.73;;
8694;SDS011;65580;49.446;6.854;2023-03-24T18:10:48;2.45;;;0.95;;
8694;SDS011;65580;49.446;6.854;2023-03-24T18:14:51;4.57;;;1.45;;
8694;SDS011;65580;49.446;6.854;2023-03-24T18:18:56;3.58;;;0.82;;
8694;SDS011;65580;49.446;6.854;2023-03-24T18:23:00;3.13;;;1.10;;
8694;SDS011;65580;49.446;6.854;2023-03-24T18:27:04;2.72;;;1.00;;
8694;SDS011;65580;49.446;6.854;2023-03-24T18:31:10;3.63;;;1.17;;
8694;SDS011;65580;49.446;6.854;2023-03-24T18:35:17;5.05;;;1.08;;
8694;SDS011;65580;49.446;6.854;2023-03-24T18:39:20;2.58;;;1.20;;
8694;SDS011;65580;49.446;6.854;2023-03-24T18:43:23;1.80;;;1.00;;
8694;SDS011;65580;49.446;6.854;2023-03-24T18:47:26;6.65;;;1.15;;
8694;SDS011;65580;49.446;6.854;2023-03-24T18:51:30;4.07;;;1.30;;
8694;SDS011;65580;49.446;6.854;2023-03-24T18:55:33;4.72;;;1.30;;
8694;SDS011;65580;49.446;6.854;2023-03-24T18:59:36;6.93;;;2.20;;
8694;SDS011;65580;49.446;6.854;2023-03-24T19:03:39;4.10;;;1.67;;
8694;SDS011;65580;49.446;6.854;2023-03-24T19:07:45;5.45;;;2.05;;
8694;SDS011;65580;49.446;6.854;2023-03-24T19:11:52;4.10;;;2.10;;
8694;SDS011;65580;49.446;6.854;2023-03-24T19:15:55;4.82;;;1.90;;
8694;SDS011;65580;49.446;6.854;2023-03-24T19:19:57;4.20;;;2.00;;
8694;SDS011;65580;49.446;6.854;2023-03-24T19:24:02;3.88;;;1.90;;
8694;SDS011;65580;49.446;6.854;2023-03-24T19:28:05;5.07;;;1.90;;
8694;SDS011;65580;49.446;6.854;2023-03-24T19:32:08;5.47;;;2.53;;
8694;SDS011;65580;49.446;6.854;2023-03-24T19:36:11;12.52;;;3.90;;
8694;SDS011;65580;49.446;6.854;2023-03-24T19:40:17;7.18;;;2.83;;
8694;SDS011;65580;49.446;6.854;2023-03-24T19:44:20;4.65;;;1.60;;
8694;SDS011;65580;49.446;6.854;2023-03-24T19:48:23;2.63;;;1.10;;
8694;SDS011;65580;49.446;6.854;2023-03-24T19:52:26;3.75;;;1.08;;
8694;SDS011;65580;49.446;6.854;2023-03-24T19:56:30;6.75;;;1.17;;
8694;SDS011;65580;49.446;6.854;2023-03-24T20:00:33;6.03;;;1.00;;
8694;SDS011;65580;49.446;6.854;2023-03-24T20:04:37;2.97;;;1.00;;
8694;SDS011;65580;49.446;6.854;2023-03-24T20:08:40;4.38;;;0.88;;
8694;SDS011;65580;49.446;6.854;2023-03-24T20:12:44;3.83;;;0.75;;
8694;SDS011;65580;49.446;6.854;2023-03-24T20:16:47;3.80;;;1.00;;
8694;SDS011;65580;49.446;6.854;2023-03-24T20:20:50;7.07;;;1.10;;
8694;SDS011;65580;49.446;6.854;2023-03-24T20:24:56;2.80;;;0.70;;
8694;SDS011;65580;49.446;6.854;2023-03-24T20:29:02;4.07;;;0.80;;
8694;SDS011;65580;49.446;6.854;2023-03-24T20:33:05;2.13;;;0.57;;
8694;SDS011;65580;49.446;6.854;2023-03-24T20:37:08;3.75;;;0.77;;
8694;SDS011;65580;49.446;6.854;2023-03-24T20:41:11;4.90;;;1.70;;
8694;SDS011;65580;49.446;6.854;2023-03-24T20:45:15;5.70;;;1.50;;
8694;SDS011;65580;49.446;6.854;2023-03-24T20:49:18;4.28;;;0.90;;
8694;SDS011;65580;49.446;6.854;2023-03-24T20:53:22;5.40;;;1.05;;
8694;SDS011;65580;49.446;6.854;2023-03-24T20:57:25;2.10;;;0.95;;
8694;SDS011;65580;49.446;6.854;2023-03-24T21:01:30;3.60;;;1.00;;
8694;SDS011;65580;49.446;6.854;2023-03-24T21:05:36;3.10;;;1.00;;
8694;SDS011;65580;49.446;6.854;2023-03-24T21:09:39;8.20;;;1.73;;
8694;SDS011;65580;49.446;6.854;2023-03-24T21:13:42;6.32;;;1.10;;
8694;SDS011;65580;49.446;6.854;2023-03-24T21:17:46;5.38;;;1.20;;
8694;SDS011;65580;49.446;6.854;2023-03-24T21:21:49;5.68;;;1.50;;
8694;SDS011;65580;49.446;6.854;2023-03-24T21:25:54;3.83;;;1.10;;
8694;SDS011;65580;49.446;6.854;2023-03-24T21:29:57;6.38;;;1.10;;
8694;SDS011;65580;49.446;6.854;2023-03-24T21:34:03;2.90;;;1.35;;
8694;SDS011;65580;49.446;6.854;2023-03-24T21:38:06;3.65;;;1.05;;
8694;SDS011;65580;49.446;6.854;2023-03-24T21:42:11;4.35;;;1.10;;
8694;SDS011;65580;49.446;6.854;2023-03-24T21:46:15;4.30;;;1.20;;
8694;SDS011;65580;49.446;6.854;2023-03-24T21:50:24;7.10;;;1.20;;
8694;SDS011;65580;49.446;6.854;2023-03-24T21:54:29;1.83;;;0.73;;
8694;SDS011;65580;49.446;6.854;2023-03-24T21:58:33;4.00;;;1.00;;
8694;SDS011;65580;49.446;6.854;2023-03-24T22:02:36;5.05;;;0.73;;
8694;SDS011;65580;49.446;6.854;2023-03-24T22:06:41;1.83;;;0.85;;
8694;SDS011;65580;49.446;6.854;2023-03-24T22:10:48;3.78;;;0.77;;
8694;SDS011;65580;49.446;6.854;2023-03-24T22:14:54;2.85;;;0.70;;
8694;SDS011;65580;49.446;6.854;2023-03-24T22:18:58;3.20;;;0.90;;
8694;SDS011;65580;49.446;6.854;2023-03-24T22:23:08;5.47;;;1.30;;
8694;SDS011;65580;49.446;6.854;2023-03-24T22:27:11;2.92;;;0.70;;
8694;SDS011;65580;49.446;6.854;2023-03-24T22:31:19;3.30;;;0.60;;
8694;SDS011;65580;49.446;6.854;2023-03-24T22:35:23;2.85;;;1.02;;
8694;SDS011;65580;49.446;6.854;2023-03-24T22:39:30;1.88;;;0.80;;
8694;SDS011;65580;49.446;6.854;2023-03-24T22:43:35;5.35;;;0.90;;
8694;SDS011;65580;49.446;6.854;2023-03-24T22:47:39;2.55;;;0.70;;
8694;SDS011;65580;49.446;6.854;2023-03-24T22:51:42;1.08;;;0.63;;
8694;SDS011;65580;49.446;6.854;2023-03-24T22:55:47;1.17;;;0.50;;
8694;SDS011;65580;49.446;6.854;2023-03-24T22:59:50;2.78;;;0.85;;
8694;SDS011;65580;49.446;6.854;2023-03-24T23:03:53;5.85;;;0.80;;
8694;SDS011;65580;49.446;6.854;2023-03-24T23:07:57;2.17;;;0.60;;
8694;SDS011;65580;49.446;6.854;2023-03-24T23:12:04;3.10;;;0.90;;
8694;SDS011;65580;49.446;6.854;2023-03-24T23:16:08;1.80;;;0.85;;
8694;SDS011;65580;49.446;6.854;2023-03-24T23:20:11;6.50;;;0.98;;
8694;SDS011;65580;49.446;6.854;2023-03-24T23:24:16;3.53;;;1.08;;
8694;SDS011;65580;49.446;6.854;2023-03-24T23:28:25;4.28;;;0.95;;
8694;SDS011;65580;49.446;6.854;2023-03-24T23:32:30;6.30;;;1.15;;
8694;SDS011;65580;49.446;6.854;2023-03-24T23:36:34;4.30;;;1.00;;
8694;SDS011;65580;49.446;6.854;2023-03-24T23:40:39;3.53;;;0.77;;
8694;SDS011;65580;49.446;6.854;2023-03-24T23:44:44;9.70;;;1.15;;
8694;SDS011;65580;49.446;6.854;2023-03-24T23:48:47;5.93;;;1.30;;
8694;SDS011;65580;49.446;6.854;2023-03-24T23:56:58;5.10;;;0.80;;
